Time;durP1;ratioP1;P1;durP2;ratioP2;P2;SDS_P1;SDS_P2;PMS_P1;PMS_P2;Temp;Humidity;BMP_temperature;BMP_pressure;BME280_temperature;BME280_humidity;BME280_pressure;Samples;Min_cycle;Max_cycle;Signal;HPM_P1;HPM_P2
2022/06/07 00:02:03;;;;;;;1.17;0.95;;;13.40;86.30;;;;;;4995881;28;20026;-75
2022/06/07 00:04:28;;;;;;;1.05;0.90;;;13.50;86.30;;;;;;4979151;28;20475;-76
2022/06/07 00:06:54;;;;;;;1.30;1.10;;;13.50;86.40;;;;;;5013259;28;20037;-76
2022/06/07 00:09:20;;;;;;;1.73;1.20;;;13.50;86.40;;;;;;5013207;28;20707;-77
2022/06/07 00:11:45;;;;;;;2.83;1.50;;;13.50;86.40;;;;;;5013597;28;20038;-77
2022/06/07 00:14:11;;;;;;;2.03;1.48;;;13.40;86.30;;;;;;5013056;28;20497;-76
2022/06/07 00:16:37;;;;;;;1.63;1.17;;;13.50;86.40;;;;;;5013226;28;20386;-76
2022/06/07 00:19:03;;;;;;;2.28;1.50;;;13.50;86.40;;;;;;4995470;28;20394;-76
2022/06/07 00:21:29;;;;;;;1.50;1.17;;;13.50;86.40;;;;;;5013256;28;20057;-76
2022/06/07 00:23:58;;;;;;;1.90;1.40;;;13.50;86.40;;;;;;5012787;28;20041;-76
2022/06/07 00:26:24;;;;;;;1.95;1.40;;;13.50;86.40;;;;;;4995312;28;20038;-76
2022/06/07 00:28:50;;;;;;;1.27;1.10;;;13.60;86.50;;;;;;5012677;28;20038;-75
2022/06/07 00:31:16;;;;;;;2.33;1.50;;;13.60;86.50;;;;;;4995321;28;20425;-75
2022/06/07 00:33:42;;;;;;;1.77;1.48;;;13.60;86.50;;;;;;4995402;28;20033;-75
2022/06/07 00:36:08;;;;;;;1.73;1.30;;;13.60;86.50;;;;;;5012558;28;20875;-75
2022/06/07 00:38:34;;;;;;;2.60;1.63;;;13.60;86.60;;;;;;5011443;28;20049;-74
2022/06/07 00:41:03;;;;;;;2.40;1.65;;;13.60;86.60;;;;;;5012614;28;20092;-76
2022/06/07 00:43:30;;;;;;;2.63;1.52;;;13.60;86.60;;;;;;4993801;28;20066;-75
2022/06/07 00:45:57;;;;;;;2.10;1.70;;;13.60;86.60;;;;;;5012778;28;20536;-76
2022/06/07 00:48:24;;;;;;;3.25;1.63;;;13.60;86.60;;;;;;5012283;28;20030;-75
2022/06/07 00:50:54;;;;;;;2.67;1.75;;;13.60;86.60;;;;;;4977614;28;20124;-76
2022/06/07 00:53:29;;;;;;;3.35;1.88;;;13.60;86.60;;;;;;4977993;28;20034;-76
2022/06/07 00:55:55;;;;;;;3.20;1.90;;;13.60;86.60;;;;;;5012133;28;20030;-76
2022/06/07 00:58:25;;;;;;;2.80;1.55;;;13.60;86.70;;;;;;5012298;28;20040;-76
2022/06/07 01:00:52;;;;;;;2.20;1.60;;;13.60;86.70;;;;;;4980637;28;20877;-76
2022/06/07 01:03:20;;;;;;;2.97;1.80;;;13.60;86.70;;;;;;5012136;28;20033;-76
2022/06/07 01:05:48;;;;;;;2.83;2.00;;;13.70;86.80;;;;;;5012053;28;20068;-76
2022/06/07 01:10:53;;;;;;;3.10;2.05;;;13.70;86.80;;;;;;5011758;28;20413;-76
2022/06/07 01:13:23;;;;;;;3.67;2.08;;;13.70;86.80;;;;;;4993353;28;20403;-76
2022/06/07 01:15:48;;;;;;;3.03;1.95;;;13.70;86.80;;;;;;5012211;28;20038;-75
2022/06/07 01:18:16;;;;;;;2.88;2.00;;;13.70;86.80;;;;;;5011790;28;20030;-76
2022/06/07 01:20:42;;;;;;;3.17;1.98;;;13.70;86.70;;;;;;5011870;28;20030;-77
2022/06/07 01:23:08;;;;;;;3.13;2.00;;;13.70;86.80;;;;;;4977911;28;20116;-76
2022/06/07 01:25:35;;;;;;;2.75;1.77;;;13.80;86.80;;;;;;5011882;28;20091;-76
2022/06/07 01:28:01;;;;;;;2.97;1.92;;;13.80;86.80;;;;;;5011803;28;20042;-75
2022/06/07 01:30:27;;;;;;;2.97;1.90;;;13.80;86.80;;;;;;5011667;28;20571;-75
2022/06/07 01:32:53;;;;;;;3.15;1.85;;;13.80;86.80;;;;;;5011897;28;20366;-76
2022/06/07 01:35:19;;;;;;;4.35;2.03;;;13.80;86.80;;;;;;5011257;28;20180;-76
2022/06/07 01:37:45;;;;;;;2.90;1.83;;;13.80;86.80;;;;;;4994438;28;20030;-76
2022/06/07 01:42:57;;;;;;;2.47;1.73;;;13.90;86.90;;;;;;4997012;28;20049;-77
2022/06/07 01:45:23;;;;;;;2.72;2.00;;;13.90;86.90;;;;;;5011382;28;20030;-77
2022/06/07 01:47:49;;;;;;;3.38;2.25;;;13.80;86.80;;;;;;5011537;28;20121;-77
2022/06/07 01:50:14;;;;;;;3.83;2.17;;;13.90;86.90;;;;;;5012852;28;20096;-77
2022/06/07 01:52:40;;;;;;;3.58;2.20;;;13.90;86.90;;;;;;5014707;28;20046;-77
2022/06/07 01:55:07;;;;;;;3.53;2.17;;;13.90;86.90;;;;;;4964879;28;20037;-77
2022/06/07 01:57:33;;;;;;;3.70;1.98;;;13.90;86.90;;;;;;5014916;28;20141;-77
2022/06/07 02:00:00;;;;;;;2.60;1.85;;;14.00;86.90;;;;;;5024914;28;20115;-77
2022/06/07 02:02:27;;;;;;;4.43;2.60;;;13.90;86.90;;;;;;5008826;28;20049;-74
2022/06/07 02:04:54;;;;;;;3.97;2.30;;;13.90;86.90;;;;;;4986894;28;20053;-78
2022/06/07 02:07:21;;;;;;;4.40;2.47;;;14.00;86.90;;;;;;5021782;28;20112;-78
2022/06/07 02:09:46;;;;;;;3.90;2.35;;;13.90;86.90;;;;;;5000230;28;20390;-77
2022/06/07 02:12:12;;;;;;;4.32;2.55;;;13.90;86.90;;;;;;5018020;28;20042;-77
2022/06/07 02:14:39;;;;;;;3.25;2.03;;;13.90;86.90;;;;;;5000876;28;20045;-78
2022/06/07 02:17:06;;;;;;;3.17;1.95;;;13.90;86.90;;;;;;5020924;28;20038;-78
2022/06/07 02:19:32;;;;;;;2.78;1.95;;;13.90;86.90;;;;;;5002632;28;20030;-78
2022/06/07 02:21:57;;;;;;;3.35;2.10;;;13.90;86.90;;;;;;5019412;28;20397;-77
2022/06/07 02:24:23;;;;;;;3.42;2.10;;;14.00;87.00;;;;;;5021267;28;20026;-77
2022/06/07 02:26:54;;;;;;;3.58;2.35;;;13.90;87.00;;;;;;5022490;28;20068;-77
2022/06/07 02:29:26;;;;;;;3.28;2.00;;;13.90;87.00;;;;;;5021370;28;20050;-78
2022/06/07 02:31:57;;;;;;;4.57;2.70;;;14.00;87.10;;;;;;5019832;28;20098;-77
2022/06/07 02:34:23;;;;;;;3.70;2.08;;;13.90;87.10;;;;;;5001867;28;20049;-77
2022/06/07 02:36:54;;;;;;;4.78;2.47;;;13.90;87.10;;;;;;5020289;28;20038;-77
2022/06/07 02:39:19;;;;;;;3.43;2.20;;;14.00;87.20;;;;;;5018789;28;20116;-74
2022/06/07 02:41:48;;;;;;;3.67;2.13;;;13.90;87.10;;;;;;5015082;28;20439;-78
2022/06/07 02:44:14;;;;;;;3.50;1.92;;;13.90;87.80;;;;;;5014370;28;20038;-78
2022/06/07 02:46:39;;;;;;;2.53;1.75;;;13.90;87.20;;;;;;4997426;28;20060;-78
2022/06/07 02:49:05;;;;;;;2.35;1.55;;;13.90;87.20;;;;;;4996413;28;20397;-78
2022/06/07 02:51:31;;;;;;;3.15;1.80;;;13.90;87.30;;;;;;5014639;28;20038;-78
2022/06/07 02:53:57;;;;;;;3.00;1.50;;;13.90;87.30;;;;;;5014281;28;20132;-77
2022/06/07 02:56:23;;;;;;;2.13;1.50;;;13.90;87.40;;;;;;4996228;28;20050;-78
2022/06/07 02:58:49;;;;;;;3.08;2.00;;;13.90;87.40;;;;;;4996428;28;20042;-79
2022/06/07 03:01:15;;;;;;;3.42;1.90;;;13.90;87.50;;;;;;5013414;28;20121;-78
2022/06/07 03:03:41;;;;;;;3.10;2.25;;;13.90;87.50;;;;;;4996361;28;20049;-78
2022/06/07 03:06:07;;;;;;;2.70;1.80;;;13.80;87.50;;;;;;4979882;28;20034;-78
2022/06/07 03:08:33;;;;;;;3.22;2.05;;;13.80;87.50;;;;;;5013892;28;20037;-77
2022/06/07 03:10:58;;;;;;;3.90;2.13;;;13.80;87.50;;;;;;5014126;28;20034;-78
2022/06/07 03:13:24;;;;;;;3.67;2.30;;;13.80;87.50;;;;;;4979444;28;20497;-78
2022/06/07 03:15:52;;;;;;;2.60;1.80;;;13.70;87.50;;;;;;5013907;28;20434;-78
2022/06/07 03:18:18;;;;;;;2.88;1.92;;;13.70;87.60;;;;;;5013837;28;20034;-78
2022/06/07 03:20:46;;;;;;;3.25;1.90;;;13.70;87.60;;;;;;5013744;28;20030;-77
2022/06/07 03:23:12;;;;;;;2.80;2.00;;;13.70;87.70;;;;;;5013634;28;20061;-77
2022/06/07 03:25:38;;;;;;;4.00;2.17;;;13.70;87.70;;;;;;4995915;28;20026;-78
2022/06/07 03:28:04;;;;;;;3.85;2.42;;;13.80;87.70;;;;;;5014033;28;20104;-78
2022/06/07 03:30:30;;;;;;;4.28;2.90;;;13.70;87.70;;;;;;5014143;28;20030;-78
2022/06/07 03:32:56;;;;;;;4.25;2.65;;;13.70;87.80;;;;;;5013577;28;20414;-77
2022/06/07 03:35:22;;;;;;;4.05;2.55;;;13.70;87.80;;;;;;5013649;28;20112;-77
2022/06/07 03:37:48;;;;;;;3.50;2.38;;;13.70;87.80;;;;;;5013866;28;20117;-74
2022/06/07 03:40:42;;;;;;;5.05;2.50;;;13.60;87.70;;;;;;5013231;28;20182;-77
2022/06/07 03:43:00;;;;;;;3.55;2.38;;;13.70;87.80;;;;;;4998587;28;20548;-77
2022/06/07 03:45:26;;;;;;;3.25;2.22;;;13.60;87.70;;;;;;5013242;28;20030;-77
2022/06/07 03:47:53;;;;;;;3.28;2.05;;;13.70;87.80;;;;;;4979670;28;20088;-77
2022/06/07 03:50:19;;;;;;;3.05;1.95;;;13.60;87.70;;;;;;4994680;28;20406;-77
2022/06/07 03:52:45;;;;;;;2.70;1.90;;;13.70;87.80;;;;;;5012911;28;20068;-77
2022/06/07 03:55:11;;;;;;;3.90;2.30;;;13.60;87.70;;;;;;4995299;28;20133;-77
2022/06/07 03:57:37;;;;;;;2.65;2.00;;;13.70;87.80;;;;;;4994744;28;20085;-77
2022/06/07 04:00:08;;;;;;;3.40;2.30;;;13.70;87.80;;;;;;4993783;28;20117;-77
2022/06/07 04:02:34;;;;;;;3.53;2.25;;;13.70;87.80;;;;;;5013642;28;20093;-77
2022/06/07 04:05:00;;;;;;;3.67;2.40;;;13.70;87.80;;;;;;5013690;28;20034;-77
2022/06/07 04:10:11;;;;;;;3.97;2.60;;;13.60;87.70;;;;;;5013062;28;20389;-76
2022/06/07 04:12:37;;;;;;;4.82;2.80;;;13.70;87.80;;;;;;5013076;28;20045;-77
2022/06/07 04:15:03;;;;;;;3.97;2.50;;;13.60;87.70;;;;;;5013401;28;20052;-77
2022/06/07 04:17:29;;;;;;;4.20;2.53;;;13.70;87.80;;;;;;5012854;28;20390;-77
2022/06/07 04:19:55;;;;;;;3.88;2.60;;;13.70;87.80;;;;;;4979349;28;20042;-76
2022/06/07 04:22:20;;;;;;;3.47;2.28;;;13.70;87.80;;;;;;4994326;28;20030;-77
2022/06/07 04:24:46;;;;;;;4.68;2.30;;;13.70;87.80;;;;;;4979237;28;20045;-77
2022/06/07 04:27:12;;;;;;;2.92;2.13;;;13.80;87.80;;;;;;4994189;28;20129;-77
2022/06/07 04:29:38;;;;;;;3.30;2.20;;;13.70;87.70;;;;;;4995401;28;20037;-77
2022/06/07 04:32:04;;;;;;;3.78;2.05;;;13.80;87.70;;;;;;4995254;28;20053;-77
2022/06/07 04:34:30;;;;;;;2.95;2.10;;;13.80;87.70;;;;;;5013212;28;20038;-77
2022/06/07 04:36:56;;;;;;;3.65;2.40;;;13.80;87.60;;;;;;5012877;28;20042;-77
2022/06/07 04:39:21;;;;;;;3.92;2.35;;;13.80;87.50;;;;;;4995983;28;20486;-77
2022/06/07 04:41:47;;;;;;;3.50;2.28;;;13.80;87.50;;;;;;5012704;28;20049;-77
2022/06/07 04:44:13;;;;;;;4.20;2.30;;;13.80;87.50;;;;;;5013302;28;20143;-76
2022/06/07 04:46:40;;;;;;;3.30;2.20;;;13.90;87.60;;;;;;5013073;28;20186;-77
2022/06/07 04:49:06;;;;;;;4.45;2.53;;;13.90;87.60;;;;;;5013321;28;20061;-77
2022/06/07 04:51:34;;;;;;;3.22;2.30;;;13.90;87.50;;;;;;5012349;28;20124;-78
2022/06/07 04:54:01;;;;;;;3.88;2.45;;;13.90;87.50;;;;;;4995189;28;20504;-77
2022/06/07 04:56:29;;;;;;;3.53;2.50;;;13.90;87.60;;;;;;5012527;28;20088;-77
2022/06/07 04:58:57;;;;;;;3.05;2.15;;;13.90;87.50;;;;;;5012778;28;20474;-77
2022/06/07 05:01:26;;;;;;;3.72;2.60;;;13.90;87.50;;;;;;4996578;28;20038;-77
2022/06/07 05:03:53;;;;;;;4.60;3.00;;;14.00;87.50;;;;;;5012929;28;20113;-77
2022/06/07 05:06:25;;;;;;;4.82;3.03;;;13.90;87.50;;;;;;4994922;28;20042;-77
2022/06/07 05:08:54;;;;;;;3.67;2.58;;;13.90;87.60;;;;;;5012418;28;20033;-74
2022/06/07 05:11:20;;;;;;;4.18;2.45;;;13.90;87.70;;;;;;4978888;28;20124;-76
2022/06/07 05:13:46;;;;;;;3.45;2.38;;;13.90;88.30;;;;;;4995275;28;20045;-76
2022/06/07 05:16:12;;;;;;;3.30;2.30;;;13.90;87.70;;;;;;4978717;28;20136;-76
2022/06/07 05:18:38;;;;;;;5.05;2.55;;;13.80;87.80;;;;;;4994888;28;20034;-75
2022/06/07 05:21:06;;;;;;;4.40;2.50;;;13.90;87.90;;;;;;4994696;28;20038;-76
2022/06/07 05:23:32;;;;;;;3.13;2.30;;;13.80;87.80;;;;;;5012227;28;20050;-76
2022/06/07 05:26:05;;;;;;;3.22;2.22;;;13.90;87.90;;;;;;5012416;28;20045;-77
2022/06/07 05:28:32;;;;;;;3.55;2.40;;;13.80;87.80;;;;;;5011954;28;20053;-77
2022/06/07 05:30:58;;;;;;;4.35;2.45;;;13.80;87.80;;;;;;5013764;28;20045;-77
2022/06/07 05:33:24;;;;;;;2.70;1.95;;;13.90;87.80;;;;;;5012042;28;20038;-77
2022/06/07 05:35:50;;;;;;;2.75;2.05;;;13.90;87.70;;;;;;5013078;28;20038;-76
2022/06/07 05:38:16;;;;;;;3.83;2.20;;;14.00;87.70;;;;;;5014510;28;20037;-77
2022/06/07 05:40:42;;;;;;;4.05;2.58;;;13.90;87.60;;;;;;5013564;28;20056;-77
2022/06/07 05:43:10;;;;;;;3.83;2.28;;;14.00;87.70;;;;;;5013837;28;20121;-77
2022/06/07 05:45:36;;;;;;;3.50;2.55;;;13.90;87.50;;;;;;5015821;28;20030;-77
2022/06/07 05:48:02;;;;;;;4.30;2.45;;;13.90;87.50;;;;;;5014438;28;20174;-77
2022/06/07 05:50:29;;;;;;;3.63;2.45;;;14.00;87.60;;;;;;4994034;28;20062;-77
2022/06/07 05:52:55;;;;;;;3.17;2.25;;;14.10;87.60;;;;;;5001882;28;20096;-76
2022/06/07 05:55:20;;;;;;;3.42;2.25;;;14.10;87.50;;;;;;5017654;28;20042;-76
2022/06/07 05:57:50;;;;;;;2.47;1.98;;;14.10;87.50;;;;;;5019331;28;20042;-77
2022/06/07 06:00:17;;;;;;;4.85;2.22;;;14.00;87.40;;;;;;4994499;28;20034;-75
2022/06/07 06:02:43;;;;;;;3.72;2.38;;;14.10;87.50;;;;;;5011932;28;20092;-75
2022/06/07 06:05:10;;;;;;;3.63;2.30;;;14.20;87.50;;;;;;4993882;28;20042;-75
2022/06/07 06:10:19;;;;;;;3.53;2.20;;;14.10;87.40;;;;;;4993936;28;20034;-75
2022/06/07 06:10:23;;;;;;;3.47;2.35;;;14.10;87.50;;;;;;5010833;28;20068;-76
2022/06/07 06:12:48;;;;;;;4.30;2.10;;;14.10;87.50;;;;;;5011132;28;20092;-76
2022/06/07 06:15:14;;;;;;;2.65;1.85;;;14.10;87.50;;;;;;5011335;28;20116;-76
2022/06/07 06:17:40;;;;;;;4.00;2.38;;;14.20;87.50;;;;;;4994188;28;20049;-76
2022/06/07 06:20:09;;;;;;;3.50;1.77;;;14.20;87.40;;;;;;4993584;28;20046;-77
2022/06/07 06:22:35;;;;;;;4.50;2.15;;;14.20;87.30;;;;;;5010277;28;20041;-77
2022/06/07 06:25:01;;;;;;;3.80;2.10;;;14.30;87.90;;;;;;4977774;28;20045;-78
2022/06/07 06:27:29;;;;;;;4.28;2.20;;;14.40;87.20;;;;;;5011590;28;20087;-78
2022/06/07 06:29:55;;;;;;;4.05;2.50;;;14.40;87.10;;;;;;5011623;28;20034;-78
2022/06/07 06:32:21;;;;;;;3.58;2.28;;;14.40;87.00;;;;;;5012050;28;20053;-78
2022/06/07 06:34:47;;;;;;;2.95;2.13;;;14.40;87.00;;;;;;5011792;28;20500;-78
2022/06/07 06:37:13;;;;;;;3.85;2.25;;;14.40;87.00;;;;;;4978895;28;20121;-78
2022/06/07 06:46:46;;;;;;;4.68;2.35;;;14.60;87.00;;;;;;4913941;29;20059;-77
2022/06/07 06:52:57;;;;;;;3.10;1.90;;;14.70;86.70;;;;;;4893834;29;20059;-77
2022/06/07 07:03:01;;;;;;;3.97;2.70;;;14.90;86.20;;;;;;4819016;29;20503;-76
2022/06/07 07:05:35;;;;;;;4.03;2.80;;;14.90;86.20;;;;;;4751451;30;20066;-75
2022/06/07 07:08:50;;;;;;;3.65;2.67;;;15.00;85.90;;;;;;4780805;29;20063;-77
2022/06/07 07:14:25;;;;;;;5.07;2.42;;;15.20;85.80;;;;;;4651929;30;20054;-77
2022/06/07 07:16:52;;;;;;;3.88;2.60;;;15.20;85.60;;;;;;4663326;30;20125;-77
2022/06/07 07:19:20;;;;;;;3.97;2.60;;;15.30;85.60;;;;;;4663104;30;20118;-77
2022/06/07 07:21:48;;;;;;;3.22;2.38;;;15.40;85.50;;;;;;4663911;30;20051;-75
2022/06/07 07:24:18;;;;;;;3.20;2.20;;;15.40;85.30;;;;;;4692700;30;20057;-76
2022/06/07 07:26:45;;;;;;;4.75;3.10;;;15.50;85.30;;;;;;4696860;30;20062;-76
2022/06/07 07:29:13;;;;;;;3.45;2.22;;;15.50;85.30;;;;;;4701358;30;20053;-77
2022/06/07 07:31:39;;;;;;;4.78;2.80;;;15.40;85.50;;;;;;4732966;30;20468;-74
2022/06/07 07:34:08;;;;;;;3.63;2.40;;;15.60;85.60;;;;;;4766927;30;20588;-75
2022/06/07 07:36:36;;;;;;;3.58;2.67;;;15.70;85.40;;;;;;4804527;29;20125;-75
2022/06/07 07:39:01;;;;;;;4.10;2.90;;;15.70;85.10;;;;;;4822988;29;20164;-75
2022/06/07 07:41:30;;;;;;;3.47;2.55;;;15.80;85.00;;;;;;4820885;29;20047;-74
2022/06/07 07:43:59;;;;;;;3.67;2.50;;;15.90;85.00;;;;;;4824127;29;20062;-76
2022/06/07 07:46:29;;;;;;;3.40;2.53;;;15.80;84.90;;;;;;4908319;28;20137;-76
2022/06/07 07:48:55;;;;;;;4.15;2.65;;;15.90;85.00;;;;;;5013229;28;20496;-76
2022/06/07 07:51:28;;;;;;;4.72;2.80;;;15.90;85.00;;;;;;4996051;28;20050;-75
2022/06/07 07:53:56;;;;;;;3.50;2.60;;;15.80;85.00;;;;;;4997117;28;20026;-77
2022/06/07 07:56:23;;;;;;;4.03;2.65;;;15.80;85.20;;;;;;5013523;28;20042;-76
2022/06/07 07:58:49;;;;;;;5.22;2.92;;;15.90;85.30;;;;;;5013946;28;20030;-77
2022/06/07 08:01:18;;;;;;;3.95;2.70;;;16.00;85.20;;;;;;5013557;28;20120;-76
2022/06/07 08:03:44;;;;;;;3.63;2.55;;;16.00;85.00;;;;;;4994823;28;20034;-77
2022/06/07 08:06:12;;;;;;;3.55;2.58;;;16.20;84.80;;;;;;5013345;28;20042;-77
2022/06/07 08:08:39;;;;;;;4.82;2.80;;;16.30;84.60;;;;;;5013292;28;20103;-78
2022/06/07 08:11:06;;;;;;;4.75;2.80;;;16.50;84.10;;;;;;4995779;28;20057;-77
2022/06/07 08:13:36;;;;;;;4.82;2.80;;;16.60;83.80;;;;;;5012895;28;20517;-76
2022/06/07 08:16:04;;;;;;;3.13;2.40;;;16.70;83.60;;;;;;4979736;28;20041;-77
2022/06/07 08:18:30;;;;;;;3.83;2.47;;;16.70;83.60;;;;;;5013435;28;20473;-76
2022/06/07 08:21:08;;;;;;;3.55;2.60;;;16.70;83.60;;;;;;4979112;28;20036;-77
2022/06/07 08:23:35;;;;;;;5.18;2.70;;;16.80;83.50;;;;;;4979759;28;20030;-77
2022/06/07 08:26:04;;;;;;;4.18;2.50;;;16.80;83.30;;;;;;4979339;28;20038;-76
2022/06/07 08:28:30;;;;;;;5.07;2.75;;;16.80;83.40;;;;;;4994416;28;20034;-77
2022/06/07 08:30:55;;;;;;;4.82;2.80;;;16.90;83.60;;;;;;5013113;28;20083;-76
2022/06/07 08:38:47;;;;;;;4.20;2.77;;;16.80;83.60;;;;;;4980607;28;20038;-77
2022/06/07 08:41:24;;;;;;;4.05;2.78;;;17.00;83.50;;;;;;4994690;28;20124;-77
2022/06/07 08:43:51;;;;;;;4.20;2.53;;;16.90;83.30;;;;;;5013204;28;20034;-76
2022/06/07 08:46:22;;;;;;;3.72;2.30;;;16.90;83.30;;;;;;4962865;28;20125;-77
2022/06/07 08:48:48;;;;;;;3.88;2.65;;;16.90;83.30;;;;;;4993788;28;20042;-76
2022/06/07 08:51:20;;;;;;;3.95;2.28;;;16.80;83.30;;;;;;4978656;28;20048;-77
2022/06/07 08:53:52;;;;;;;3.38;2.22;;;16.70;83.40;;;;;;4979265;28;20085;-77
2022/06/07 08:56:22;;;;;;;3.25;2.25;;;16.80;83.60;;;;;;4979234;28;20474;-77
2022/06/07 08:58:51;;;;;;;4.18;2.45;;;16.70;83.60;;;;;;4994472;28;20049;-77
2022/06/07 09:01:50;;;;;;;3.80;2.55;;;16.80;83.60;;;;;;5012254;28;20049;-77
2022/06/07 09:04:35;;;;;;;4.38;2.55;;;16.70;83.70;;;;;;5012307;28;20046;-77
2022/06/07 09:07:05;;;;;;;4.80;3.05;;;16.80;83.70;;;;;;4995190;28;20042;-77
2022/06/07 09:12:25;;;;;;;5.57;3.22;;;16.90;83.40;;;;;;4997833;28;20052;-77
2022/06/07 09:15:11;;;;;;;4.43;2.88;;;17.00;83.30;;;;;;4993663;28;20046;-77
2022/06/07 09:17:41;;;;;;;4.55;3.00;;;17.00;83.20;;;;;;4994777;28;20054;-76
2022/06/07 09:20:14;;;;;;;4.10;2.90;;;17.00;83.20;;;;;;5012213;28;20042;-76
2022/06/07 09:22:52;;;;;;;4.72;2.97;;;17.10;83.30;;;;;;5012525;28;20073;-76
2022/06/07 09:25:35;;;;;;;4.25;2.72;;;17.10;83.10;;;;;;4994428;28;20045;-75
2022/06/07 09:28:05;;;;;;;4.30;2.90;;;17.10;82.90;;;;;;4996019;28;20072;-76
2022/06/07 09:30:39;;;;;;;4.30;2.70;;;17.10;82.90;;;;;;4978853;28;20076;-76
2022/06/07 09:33:26;;;;;;;3.97;2.55;;;17.10;83.20;;;;;;4992580;28;20046;-77
2022/06/07 09:35:58;;;;;;;4.22;2.65;;;17.00;83.20;;;;;;4994287;28;20038;-74
2022/06/07 09:38:45;;;;;;;4.53;2.97;;;17.10;83.10;;;;;;5011784;28;20049;-74
2022/06/07 09:44:12;;;;;;;4.43;3.22;;;17.10;83.10;;;;;;5011716;28;20521;-74
2022/06/07 09:46:38;;;;;;;4.38;3.13;;;17.10;83.10;;;;;;4992946;28;20395;-74
2022/06/07 09:49:04;;;;;;;4.85;3.33;;;17.10;83.10;;;;;;4986206;28;20061;-77
2022/06/07 09:51:39;;;;;;;4.82;3.40;;;17.00;83.20;;;;;;5011689;28;20038;-77
2022/06/07 09:54:17;;;;;;;4.40;2.78;;;16.80;83.20;;;;;;5012083;28;20089;-76
2022/06/07 09:57:06;;;;;;;4.25;2.78;;;17.00;83.50;;;;;;4994693;28;20046;-74
2022/06/07 10:00:02;;;;;;;4.88;2.58;;;16.90;83.50;;;;;;4994902;28;20524;-76
2022/06/07 10:03:00;;;;;;;3.53;2.47;;;16.80;83.50;;;;;;4995806;28;20053;-76
2022/06/07 10:05:36;;;;;;;3.53;2.45;;;16.90;83.50;;;;;;5009764;28;20111;-76
2022/06/07 10:08:45;;;;;;;4.40;3.10;;;16.90;83.50;;;;;;4993368;28;20081;-75
2022/06/07 10:11:21;;;;;;;5.47;2.83;;;16.80;83.30;;;;;;4952101;28;20630;-77
2022/06/07 10:14:00;;;;;;;3.63;2.65;;;16.90;83.30;;;;;;4954899;28;20125;-76
2022/06/07 10:16:58;;;;;;;4.38;2.88;;;16.90;83.90;;;;;;4938178;28;20206;-75
2022/06/07 10:19:38;;;;;;;4.65;2.95;;;17.00;83.00;;;;;;4954423;28;20507;-77
2022/06/07 10:22:23;;;;;;;2.77;2.30;;;17.10;82.70;;;;;;4954247;28;20051;-77
2022/06/07 10:25:11;;;;;;;4.00;2.70;;;17.30;82.50;;;;;;4954769;28;20890;-76
2022/06/07 10:27:50;;;;;;;3.17;2.40;;;17.40;82.20;;;;;;4954889;28;20067;-77
2022/06/07 10:30:26;;;;;;;3.47;2.10;;;17.60;81.90;;;;;;4924010;28;20058;-77
2022/06/07 10:33:09;;;;;;;3.80;2.67;;;17.50;81.60;;;;;;4907817;28;20105;-77
2022/06/07 10:35:53;;;;;;;2.15;1.80;;;17.60;81.50;;;;;;4979916;28;20505;-78
2022/06/07 10:38:35;;;;;;;3.53;2.40;;;17.50;81.70;;;;;;4996800;28;20545;-78
2022/06/07 10:41:28;;;;;;;2.70;2.00;;;17.40;81.90;;;;;;4994471;28;20045;-77
2022/06/07 10:44:30;;;;;;;4.07;2.45;;;17.30;82.20;;;;;;5014998;28;20030;-76
2022/06/07 10:46:57;;;;;;;2.65;2.00;;;17.30;82.50;;;;;;5014127;28;20042;-76
2022/06/07 10:49:45;;;;;;;3.85;2.47;;;17.20;82.50;;;;;;5014709;28;20041;-74
2022/06/07 10:52:37;;;;;;;3.15;2.22;;;17.20;82.60;;;;;;5014000;28;20524;-77
2022/06/07 10:55:09;;;;;;;;;;;17.30;82.70;;;;;;4980543;28;20034;-77
2022/06/07 10:58:11;;;;;;;2.60;1.88;;;17.50;82.50;;;;;;5013853;28;19905;-76
2022/06/07 11:00:43;;;;;;;3.95;2.50;;;17.70;82.10;;;;;;5014043;28;20027;-77
2022/06/07 11:03:35;;;;;;;3.25;2.35;;;17.70;81.50;;;;;;5014086;28;20042;-74
2022/06/07 11:11:40;;;;;;;2.93;2.10;;;17.80;81.20;;;;;;5013899;28;20072;-75
2022/06/07 11:14:30;;;;;;;3.60;2.03;;;17.80;81.30;;;;;;5014525;28;20038;-77
2022/06/07 11:17:06;;;;;;;3.38;2.15;;;17.90;81.40;;;;;;5014266;28;20120;-75
2022/06/07 11:19:33;;;;;;;3.53;2.45;;;17.90;81.20;;;;;;5014495;28;20026;-76
2022/06/07 11:22:06;;;;;;;4.45;2.83;;;18.00;81.10;;;;;;5013706;28;20040;-77
2022/06/07 11:24:35;;;;;;;4.03;2.70;;;18.10;81.00;;;;;;4995767;28;20121;-76
2022/06/07 11:27:16;;;;;;;3.75;2.60;;;18.10;81.00;;;;;;4995661;28;20457;-77
2022/06/07 11:29:42;;;;;;;4.13;2.63;;;18.10;80.90;;;;;;5013686;28;20073;-76
2022/06/07 11:32:42;;;;;;;2.95;2.28;;;18.30;80.80;;;;;;4996194;28;20073;-77
2022/06/07 11:35:44;;;;;;;2.92;2.30;;;18.60;80.50;;;;;;4993813;28;20034;-78
2022/06/07 11:38:22;;;;;;;3.33;2.47;;;18.90;79.80;;;;;;5013627;28;20125;-78
2022/06/07 11:40:49;;;;;;;4.85;2.58;;;19.10;79.20;;;;;;5013675;28;20030;-75
2022/06/07 11:43:50;;;;;;;2.85;2.25;;;19.30;78.70;;;;;;5013566;28;20041;-76
2022/06/07 11:46:25;;;;;;;;;;;19.40;78.60;;;;;;4996492;28;20134;-78
2022/06/07 11:48:51;;;;;;;1.92;1.73;;;19.40;78.60;;;;;;5013760;28;19912;-77
2022/06/07 11:51:21;;;;;;;2.53;2.05;;;19.30;78.80;;;;;;5013561;28;20492;-75
2022/06/07 11:54:00;;;;;;;3.70;2.25;;;19.30;78.90;;;;;;5013581;28;20504;-76
2022/06/07 11:56:36;;;;;;;3.55;2.53;;;19.40;79.00;;;;;;4997499;28;20033;-76
2022/06/07 11:59:34;;;;;;;2.92;2.13;;;19.40;79.00;;;;;;4995310;28;20056;-78
2022/06/07 12:02:22;;;;;;;2.60;2.10;;;19.40;79.00;;;;;;5013403;28;20125;-76
2022/06/07 12:04:59;;;;;;;2.85;1.83;;;19.50;78.90;;;;;;4982205;28;20040;-78
2022/06/07 12:07:45;;;;;;;3.13;2.22;;;19.60;78.80;;;;;;4980596;28;20124;-77
2022/06/07 12:10:33;;;;;;;2.83;2.30;;;19.70;78.60;;;;;;5013061;28;20048;-77
2022/06/07 12:13:55;;;;;;;2.80;2.08;;;19.70;78.50;;;;;;5013399;28;20041;-78
2022/06/07 12:16:39;;;;;;;3.55;2.30;;;19.70;78.60;;;;;;4938237;28;20102;-76
2022/06/07 12:19:26;;;;;;;3.63;2.25;;;19.70;78.60;;;;;;4952682;28;20202;-76
2022/06/07 12:22:08;;;;;;;2.55;1.77;;;19.60;78.70;;;;;;4923158;28;20051;-76
2022/06/07 12:28:00;;;;;;;2.80;2.15;;;19.60;78.90;;;;;;4919216;29;20099;-75
2022/06/07 12:30:30;;;;;;;2.95;2.17;;;19.60;79.10;;;;;;4916942;29;20043;-75
2022/06/07 12:33:14;;;;;;;3.15;2.00;;;19.60;79.10;;;;;;4933220;29;20075;-75
2022/06/07 12:35:53;;;;;;;2.80;2.05;;;19.50;79.10;;;;;;4917326;29;20039;-75
2022/06/07 12:38:19;;;;;;;2.10;1.63;;;19.50;79.10;;;;;;4933537;29;20063;-76
2022/06/07 12:40:52;;;;;;;3.20;2.20;;;19.50;79.20;;;;;;4933258;29;20071;-75
2022/06/07 12:43:29;;;;;;;3.30;2.20;;;19.60;79.30;;;;;;4933354;29;20043;-75
2022/06/07 12:46:01;;;;;;;3.35;2.17;;;19.60;78.90;;;;;;4936700;28;20071;-75
2022/06/07 12:48:32;;;;;;;3.40;2.38;;;19.70;78.70;;;;;;4971349;28;20042;-75
2022/06/07 12:51:08;;;;;;;3.88;1.92;;;19.80;78.50;;;;;;4971151;28;20878;-77
2022/06/07 12:53:42;;;;;;;3.22;2.15;;;19.80;78.30;;;;;;4923672;28;20564;-78
2022/06/07 12:56:13;;;;;;;2.97;2.10;;;20.00;78.40;;;;;;5001467;28;20100;-78
2022/06/07 12:58:47;;;;;;;3.45;2.38;;;19.80;78.30;;;;;;5012549;28;20415;-76
2022/06/07 13:01:28;;;;;;;2.67;2.00;;;19.90;78.20;;;;;;4978542;28;20038;-77
2022/06/07 13:03:57;;;;;;;2.85;1.98;;;20.00;78.00;;;;;;4995158;28;20034;-78
2022/06/07 13:06:26;;;;;;;2.88;1.70;;;20.10;77.90;;;;;;5012232;28;20041;-78
2022/06/07 13:09:06;;;;;;;2.88;1.95;;;20.10;77.70;;;;;;4977468;28;20038;-78
2022/06/07 13:11:37;;;;;;;2.15;1.80;;;20.30;77.30;;;;;;5011706;28;20050;-78
2022/06/07 13:14:04;;;;;;;3.75;2.22;;;20.50;77.00;;;;;;5012586;28;20121;-77
2022/06/07 13:16:39;;;;;;;2.60;2.00;;;20.50;76.90;;;;;;5012268;28;20033;-77
2022/06/07 13:19:25;;;;;;;2.83;2.00;;;20.60;76.70;;;;;;5012602;28;20034;-77
2022/06/07 13:21:59;;;;;;;2.17;1.70;;;20.70;76.20;;;;;;4978544;28;20076;-76
2022/06/07 13:24:38;;;;;;;1.80;1.30;;;20.70;76.20;;;;;;4994627;28;20038;-77
2022/06/07 13:27:37;;;;;;;1.88;1.58;;;20.60;76.40;;;;;;4979210;28;20483;-77
2022/06/07 13:30:23;;;;;;;2.28;1.70;;;20.60;76.40;;;;;;5010294;28;20042;-76
2022/06/07 13:33:23;;;;;;;2.42;1.77;;;20.60;76.50;;;;;;5011049;28;20052;-76
2022/06/07 13:35:57;;;;;;;2.60;1.65;;;20.60;76.50;;;;;;4996827;28;20045;-75
2022/06/07 13:38:30;;;;;;;1.70;1.38;;;20.50;76.50;;;;;;4995030;28;20531;-76
2022/06/07 13:41:18;;;;;;;2.05;1.50;;;20.60;77.10;;;;;;4979120;28;20037;-78
2022/06/07 13:44:00;;;;;;;2.42;1.65;;;20.60;76.40;;;;;;4981188;28;20398;-78
2022/06/07 13:47:00;;;;;;;3.17;1.90;;;20.70;76.20;;;;;;4993924;28;20129;-76
2022/06/07 13:55:46;;;;;;;1.55;1.45;;;20.60;76.10;;;;;;5011846;28;20046;-75
2022/06/07 13:58:13;;;;;;;2.67;1.70;;;20.70;76.00;;;;;;5011130;28;20058;-76
2022/06/07 14:00:40;;;;;;;1.95;1.60;;;20.70;76.00;;;;;;4993046;28;20038;-75
2022/06/07 14:03:17;;;;;;;2.28;1.70;;;20.60;75.80;;;;;;4994315;28;20108;-76
2022/06/07 14:05:43;;;;;;;3.47;1.85;;;20.60;75.90;;;;;;5011269;28;20057;-75
2022/06/07 14:08:14;;;;;;;2.40;1.58;;;20.50;76.00;;;;;;4994099;28;20041;-77